Terminal Aerodrome Forecast
Issued by NWS

Home | Current Version | Previous Version | Text Only | Print | Product List | Glossary Off
Versions: 1 2 3 4 5 6 7 8 9 10 11 12 13 14 15 16 17 18 19 20

000
FTUS43 KGRB 270520
TAFATW
TAF
KATW 270520Z 2706/2806 21014G22KT P6SM SCT015 BKN025 WS015/24040KT
      TEMPO 2706/2710 BKN015
     FM271000 27014G22KT P6SM VCSH SCT015 BKN035
      TEMPO 2711/2715 5SM -SHRA BR BKN015
     FM271600 28011G18KT P6SM SCT020 BKN035
     FM272000 23010KT P6SM BKN035
     FM280100 20006KT P6SM SCT035 SCT080=

USA.gov is the U.S. government's official web portal to all federal, state and local government web resources and services.